createdAt,value
2023-02-16T00:01:45.923Z,49.72
2023-02-16T00:04:48.431Z,49.58
2023-02-16T00:07:50.838Z,48.67
2023-02-16T00:11:11.970Z,49.70
2023-02-16T00:14:15.249Z,47.17
2023-02-16T00:17:17.525Z,39.25
2023-02-16T00:20:20.003Z,50.25
2023-02-16T00:23:22.443Z,50.08
2023-02-16T00:26:26.409Z,49.45
2023-02-16T00:29:37.690Z,49.13
2023-02-16T00:32:44.542Z,49.90
2023-02-16T00:35:47.015Z,57.50
2023-02-16T00:38:51.871Z,54.47
2023-02-16T00:42:00.139Z,53.53
2023-02-16T00:45:03.095Z,58.88
2023-02-16T00:48:06.067Z,41.97
2023-02-16T00:51:24.923Z,48.60
2023-02-16T00:54:29.847Z,50.10
2023-02-16T00:57:38.343Z,51.75
2023-02-16T01:00:44.062Z,54.30
2023-02-16T01:03:47.838Z,52.20
2023-02-16T01:07:08.927Z,50.13
2023-02-16T01:10:30.636Z,50.92
2023-02-16T01:13:35.440Z,52.10
2023-02-16T01:16:42.288Z,53.75
2023-02-16T01:19:44.626Z,54.05
2023-02-16T01:22:47.225Z,54.97
2023-02-16T01:25:49.529Z,54.35
2023-02-16T01:28:52.931Z,44.10
2023-02-16T01:34:59.773Z,51.88
2023-02-16T01:38:03.169Z,51.97
2023-02-16T01:41:06.282Z,51.17
2023-02-16T01:44:28.475Z,62.17
2023-02-16T01:47:39.474Z,51.90
2023-02-16T01:50:55.247Z,51.28
2023-02-16T01:54:25.126Z,50.80
2023-02-16T01:57:31.964Z,55.95
2023-02-16T02:00:52.857Z,52.90
2023-02-16T02:04:13.926Z,57.08
2023-02-16T02:07:23.640Z,57.03
2023-02-16T02:10:47.320Z,57.08
2023-02-16T02:13:58.957Z,57.58
2023-02-16T02:17:06.556Z,63.17
2023-02-16T02:20:56.038Z,57.35
2023-02-16T02:24:20.069Z,63.83
2023-02-16T02:27:34.901Z,65.78
2023-02-16T02:30:43.192Z,63.83
2023-02-16T02:33:58.319Z,60.33
2023-02-16T02:37:11.801Z,61.33
2023-02-16T02:40:29.594Z,66.03
2023-02-16T02:43:37.496Z,58.58
2023-02-16T02:46:40.423Z,71.10
2023-02-16T02:49:50.634Z,58.00
2023-02-16T02:52:53.351Z,71.32
2023-02-16T02:56:15.539Z,56.35
2023-02-16T02:59:37.136Z,57.47
2023-02-16T03:02:41.371Z,58.67
2023-02-16T03:05:47.490Z,62.58
2023-02-16T03:08:56.081Z,60.25
2023-02-16T03:12:17.899Z,60.22
2023-02-16T03:15:21.504Z,58.35
2023-02-16T03:18:45.085Z,61.55
2023-02-16T03:22:06.211Z,66.60
2023-02-16T03:25:27.719Z,62.25
2023-02-16T03:28:50.767Z,57.25
2023-02-16T03:31:55.260Z,59.75
2023-02-16T03:34:57.987Z,53.33
2023-02-16T03:38:00.663Z,56.58
2023-02-16T03:41:03.584Z,57.08
2023-02-16T03:44:06.273Z,42.77
2023-02-16T03:47:11.608Z,56.13
2023-02-16T03:50:14.786Z,62.55
2023-02-16T03:53:18.760Z,55.28
2023-02-16T03:56:21.567Z,54.13
2023-02-16T03:59:24.021Z,53.78
2023-02-16T04:02:29.609Z,54.78
2023-02-16T04:05:32.690Z,68.85
2023-02-16T04:08:35.274Z,60.03
2023-02-16T04:11:56.530Z,56.30
2023-02-16T04:14:59.260Z,56.13
2023-02-16T04:18:02.271Z,55.80
2023-02-16T04:21:05.201Z,47.97
2023-02-16T04:24:07.901Z,63.75
2023-02-16T04:27:10.604Z,58.65
2023-02-16T04:30:16.373Z,57.42
2023-02-16T04:33:18.890Z,60.90
2023-02-16T04:36:21.390Z,63.17
2023-02-16T04:39:23.880Z,68.60
2023-02-16T04:42:26.450Z,63.47
2023-02-16T04:45:28.985Z,53.33
2023-02-16T04:48:31.691Z,61.10
2023-02-16T04:51:33.977Z,62.63
2023-02-16T04:54:36.427Z,58.33
2023-02-16T04:57:40.365Z,62.78
2023-02-16T05:03:45.264Z,67.07
2023-02-16T05:06:47.984Z,77.38
2023-02-16T05:09:51.197Z,66.10
2023-02-16T05:13:12.065Z,53.15
2023-02-16T05:16:14.586Z,60.60
2023-02-16T05:19:17.571Z,64.15
2023-02-16T05:22:20.731Z,70.45
2023-02-16T05:25:23.260Z,51.08
2023-02-16T05:28:25.687Z,62.42
2023-02-16T05:31:29.087Z,64.30
2023-02-16T05:34:31.794Z,61.85
2023-02-16T05:37:34.501Z,73.05
2023-02-16T05:40:36.840Z,78.03
2023-02-16T05:43:39.277Z,70.45
2023-02-16T05:46:42.523Z,74.60
2023-02-16T05:49:45.033Z,82.18
2023-02-16T05:52:47.397Z,66.53
2023-02-16T05:55:49.954Z,62.28
2023-02-16T05:58:52.726Z,63.70
2023-02-16T06:01:55.327Z,53.33
2023-02-16T06:04:57.654Z,61.03
2023-02-16T06:08:00.358Z,67.25
2023-02-16T06:11:03.180Z,63.35
2023-02-16T06:14:08.386Z,49.67
2023-02-16T06:17:10.744Z,79.63
2023-02-16T06:20:13.478Z,62.25
2023-02-16T06:23:16.137Z,58.33
2023-02-16T06:26:18.727Z,64.60
2023-02-16T06:29:21.069Z,65.63
2023-02-16T06:32:23.706Z,67.82
2023-02-16T06:35:26.195Z,67.28
2023-02-16T06:38:28.588Z,70.40
2023-02-16T06:41:41.129Z,63.45
2023-02-16T06:44:44.466Z,62.80
2023-02-16T06:47:46.827Z,70.75
2023-02-16T06:50:49.263Z,61.53
2023-02-16T06:53:51.924Z,62.15
2023-02-16T06:56:54.503Z,63.67
2023-02-16T06:59:57.462Z,61.35
2023-02-16T07:03:00.277Z,68.53
2023-02-16T07:06:03.039Z,71.75
2023-02-16T07:09:06.397Z,69.20
2023-02-16T07:12:08.880Z,55.30
2023-02-16T07:15:11.616Z,64.15
2023-02-16T07:18:14.385Z,60.65
2023-02-16T07:21:16.768Z,69.30
2023-02-16T07:24:20.160Z,58.33
2023-02-16T07:27:22.899Z,61.67
2023-02-16T07:30:25.628Z,62.15
2023-02-16T07:33:28.226Z,58.53
2023-02-16T07:36:30.606Z,73.25
2023-02-16T07:39:33.376Z,66.72
2023-02-16T07:42:36.072Z,60.10
2023-02-16T07:45:39.324Z,48.58
2023-02-16T07:48:41.904Z,58.50
2023-02-16T07:51:45.064Z,60.03
2023-02-16T07:54:47.640Z,53.13
2023-02-16T07:57:54.754Z,77.45
2023-02-16T08:01:07.009Z,63.83
2023-02-16T08:04:09.716Z,62.90
2023-02-16T08:07:16.899Z,61.20
2023-02-16T08:10:19.676Z,62.75
2023-02-16T08:13:22.476Z,59.20
2023-02-16T08:16:26.773Z,65.57
2023-02-16T08:19:29.409Z,81.15
2023-02-16T08:22:32.073Z,65.13
2023-02-16T08:25:35.187Z,62.85
2023-02-16T08:28:38.291Z,62.53
2023-02-16T08:31:41.745Z,57.45
2023-02-16T08:34:44.389Z,53.75
2023-02-16T08:37:47.386Z,63.75
2023-02-16T08:40:50.611Z,55.80
2023-02-16T08:43:53.393Z,49.35
2023-02-16T08:46:58.969Z,68.85
2023-02-16T08:50:01.721Z,69.53
2023-02-16T08:53:04.212Z,73.20
2023-02-16T08:56:07.233Z,141.75
2023-02-16T08:59:09.800Z,72.43
2023-02-16T09:02:12.556Z,70.65
2023-02-16T09:05:16.172Z,72.47
2023-02-16T09:08:18.526Z,68.07
2023-02-16T09:11:22.046Z,72.63
2023-02-16T09:14:24.529Z,73.80
2023-02-16T09:17:27.176Z,81.82
2023-02-16T09:20:29.759Z,74.30
2023-02-16T09:23:33.221Z,71.70
2023-02-16T09:26:39.013Z,81.38
2023-02-16T09:29:41.430Z,70.18
2023-02-16T09:32:43.747Z,73.38
2023-02-16T09:35:46.308Z,74.93
2023-02-16T09:38:49.265Z,74.40
2023-02-16T09:42:00.358Z,76.40
2023-02-16T09:45:11.901Z,76.57
2023-02-16T09:48:45.788Z,72.97
2023-02-16T09:51:48.386Z,63.10
2023-02-16T09:54:57.742Z,76.38
2023-02-16T09:58:20.085Z,69.47
2023-02-16T10:01:43.859Z,74.50
2023-02-16T10:05:17.579Z,81.80
2023-02-16T10:08:31.774Z,71.90
2023-02-16T10:11:49.158Z,70.88
2023-02-16T10:14:54.896Z,73.28
2023-02-16T10:18:37.325Z,68.65
2023-02-16T10:21:48.242Z,76.80
2023-02-16T10:25:15.816Z,68.10
2023-02-16T10:28:29.081Z,68.15
2023-02-16T10:31:50.402Z,66.57
2023-02-16T10:35:03.920Z,67.47
2023-02-16T10:38:37.840Z,76.43
2023-02-16T10:41:45.088Z,73.38
2023-02-16T10:45:06.135Z,73.22
2023-02-16T10:48:10.818Z,67.70
2023-02-16T10:51:16.891Z,74.68
2023-02-16T10:54:23.442Z,73.25
2023-02-16T10:57:32.995Z,67.63
2023-02-16T11:00:58.181Z,75.57
2023-02-16T11:04:00.722Z,71.82
2023-02-16T11:07:12.124Z,70.40
2023-02-16T11:10:28.165Z,74.00
2023-02-16T11:13:34.315Z,73.82
2023-02-16T11:16:36.973Z,77.20
2023-02-16T11:19:53.031Z,75.85
2023-02-16T11:23:14.097Z,79.38
2023-02-16T11:26:25.241Z,77.55
2023-02-16T11:29:27.813Z,77.95
2023-02-16T11:32:34.408Z,72.53
2023-02-16T11:35:43.583Z,75.05
2023-02-16T11:38:57.478Z,73.60
2023-02-16T11:42:03.500Z,69.18
2023-02-16T11:45:06.971Z,81.97
2023-02-16T11:48:14.374Z,80.32
2023-02-16T11:51:30.642Z,68.55
2023-02-16T11:54:33.461Z,73.32
2023-02-16T11:57:37.642Z,70.35
2023-02-16T12:04:04.572Z,69.32
2023-02-16T12:07:49.950Z,68.72
2023-02-16T12:11:20.113Z,74.15
2023-02-16T12:14:47.436Z,68.65
2023-02-16T12:18:13.126Z,72.22
2023-02-16T12:21:39.116Z,63.00
2023-02-16T12:24:58.433Z,64.82
2023-02-16T12:28:10.514Z,69.30
2023-02-16T12:31:38.903Z,62.80
2023-02-16T12:34:53.073Z,65.57
2023-02-16T12:38:14.356Z,59.42
2023-02-16T12:41:42.914Z,60.47
2023-02-16T12:44:52.038Z,63.42
2023-02-16T12:48:22.712Z,57.92
2023-02-16T12:51:33.383Z,63.58
2023-02-16T12:54:47.320Z,59.53
2023-02-16T12:57:58.250Z,54.25
2023-02-16T13:01:28.288Z,59.30
2023-02-16T13:04:43.557Z,57.63
2023-02-16T13:07:47.997Z,53.92
2023-02-16T13:11:15.111Z,54.15
2023-02-16T13:14:21.543Z,56.70
2023-02-16T13:17:36.747Z,57.20
2023-02-16T13:20:42.266Z,58.97
2023-02-16T13:23:48.643Z,55.58
2023-02-16T13:27:09.628Z,66.57
2023-02-16T13:30:49.644Z,48.00
2023-02-16T13:34:39.664Z,45.55
2023-02-16T13:37:47.584Z,51.92
2023-02-16T13:40:58.507Z,48.30
2023-02-16T13:44:20.381Z,49.30
2023-02-16T13:47:32.460Z,45.67
2023-02-16T13:50:35.745Z,45.40
2023-02-16T13:53:40.236Z,46.93
2023-02-16T13:56:42.597Z,45.55
2023-02-16T13:59:49.750Z,43.28
2023-02-16T14:02:56.847Z,43.08
2023-02-16T14:06:32.441Z,40.47
2023-02-16T14:09:37.648Z,41.10
2023-02-16T14:12:40.791Z,41.35
2023-02-16T14:15:53.922Z,40.92
2023-02-16T14:19:06.066Z,40.45
2023-02-16T14:22:12.402Z,38.05
2023-02-16T14:25:21.319Z,37.75
2023-02-16T14:28:23.655Z,40.78
2023-02-16T14:31:27.659Z,40.63
2023-02-16T14:34:42.358Z,40.25
2023-02-16T14:38:08.663Z,38.95
2023-02-16T14:41:23.084Z,41.17
2023-02-16T14:47:36.125Z,45.50
2023-02-16T14:50:56.864Z,40.85
2023-02-16T14:54:37.755Z,40.72
2023-02-16T14:58:02.408Z,38.22
2023-02-16T15:01:18.516Z,38.67
2023-02-16T15:04:29.625Z,39.78
2023-02-16T15:07:32.078Z,42.60
2023-02-16T15:10:35.064Z,59.88
2023-02-16T15:13:37.804Z,63.22
2023-02-16T15:16:42.120Z,61.25
2023-02-16T15:19:44.990Z,53.78
2023-02-16T15:22:58.462Z,43.63
2023-02-16T15:26:15.080Z,34.73
2023-02-16T15:29:19.166Z,43.58
2023-02-16T15:32:21.760Z,45.60
2023-02-16T15:35:28.200Z,42.63
2023-02-16T15:38:33.521Z,49.00
2023-02-16T15:41:41.568Z,57.00
2023-02-16T15:44:44.554Z,64.35
2023-02-16T15:47:47.126Z,66.30
2023-02-16T15:50:50.764Z,58.35
2023-02-16T15:53:56.150Z,56.88
2023-02-16T15:57:32.349Z,48.30
2023-02-16T16:00:35.212Z,43.78
2023-02-16T16:03:37.827Z,45.53
2023-02-16T16:06:41.502Z,46.50
2023-02-16T16:09:45.853Z,45.15
2023-02-16T16:12:50.823Z,48.00
2023-02-16T16:15:54.451Z,43.60
2023-02-16T16:19:08.186Z,38.15
2023-02-16T16:22:33.312Z,38.90
2023-02-16T16:25:43.482Z,53.97
2023-02-16T16:28:46.599Z,50.67
2023-02-16T16:31:53.943Z,38.43
2023-02-16T16:34:56.645Z,50.22
2023-02-16T16:37:59.224Z,51.05
2023-02-16T16:41:03.494Z,56.33
2023-02-16T16:44:14.494Z,61.75
2023-02-16T16:47:30.452Z,59.80
2023-02-16T16:50:38.369Z,62.63
2023-02-16T16:53:45.143Z,59.75
2023-02-16T16:56:47.718Z,65.72
2023-02-16T16:59:51.443Z,66.85
2023-02-16T17:02:55.088Z,66.50
2023-02-16T17:09:02.445Z,60.17
2023-02-16T17:12:05.097Z,75.43
2023-02-16T17:15:08.647Z,63.85
2023-02-16T17:18:18.009Z,71.68
2023-02-16T17:21:21.601Z,100.60
2023-02-16T17:24:24.612Z,95.78
2023-02-16T17:27:27.733Z,92.97
2023-02-16T17:30:32.145Z,61.03
2023-02-16T17:33:35.368Z,58.80
2023-02-16T17:36:39.337Z,58.63
2023-02-16T17:39:42.952Z,66.20
2023-02-16T17:42:45.966Z,58.85
2023-02-16T17:45:49.566Z,83.40
2023-02-16T17:48:55.667Z,66.82
2023-02-16T17:51:59.625Z,74.15
2023-02-16T17:55:02.291Z,98.30
2023-02-16T17:58:05.065Z,68.03
2023-02-16T18:01:08.267Z,55.72
2023-02-16T18:04:11.408Z,39.38
2023-02-16T18:07:16.151Z,56.67
2023-02-16T18:10:33.494Z,58.50
2023-02-16T18:13:36.258Z,61.05
2023-02-16T18:16:39.211Z,69.20
2023-02-16T18:19:42.271Z,64.30
2023-02-16T18:22:44.784Z,56.78
2023-02-16T18:25:47.814Z,62.10
2023-02-16T18:28:50.469Z,60.85
2023-02-16T18:31:53.793Z,65.50
2023-02-16T18:34:56.530Z,59.10
2023-02-16T18:37:59.355Z,64.95
2023-02-16T18:41:01.986Z,72.18
2023-02-16T18:44:04.750Z,121.57
2023-02-16T18:47:09.951Z,91.97
2023-02-16T18:50:12.806Z,82.68
2023-02-16T18:53:15.537Z,81.60
2023-02-16T18:56:19.664Z,66.80
2023-02-16T18:59:22.609Z,66.40
2023-02-16T19:02:25.032Z,62.28
2023-02-16T19:05:27.733Z,65.55
2023-02-16T19:08:30.330Z,59.22
2023-02-16T19:11:33.885Z,56.42
2023-02-16T19:14:36.681Z,66.57
2023-02-16T19:17:40.027Z,65.70
2023-02-16T19:20:42.813Z,61.00
2023-02-16T19:23:45.863Z,57.08
2023-02-16T19:26:48.351Z,56.80
2023-02-16T19:29:51.042Z,56.05
2023-02-16T19:32:53.639Z,53.70
2023-02-16T19:36:05.844Z,57.97
2023-02-16T19:39:08.968Z,61.78
2023-02-16T19:42:11.620Z,52.85
2023-02-16T19:45:14.366Z,51.78
2023-02-16T19:48:17.612Z,52.28
2023-02-16T19:51:20.471Z,48.63
2023-02-16T19:54:25.326Z,48.35
2023-02-16T19:57:27.971Z,48.38
2023-02-16T20:00:30.845Z,46.63
2023-02-16T20:03:33.463Z,48.30
2023-02-16T20:06:41.991Z,44.88
2023-02-16T20:09:44.614Z,46.88
2023-02-16T20:12:46.916Z,45.92
2023-02-16T20:15:49.367Z,47.47
2023-02-16T20:18:51.813Z,45.28
2023-02-16T20:21:54.339Z,46.65
2023-02-16T20:24:56.670Z,46.78
2023-02-16T20:27:59.050Z,47.00
2023-02-16T20:31:01.859Z,47.90
2023-02-16T20:34:05.289Z,50.63
2023-02-16T20:37:07.676Z,40.40
2023-02-16T20:40:10.837Z,48.83
2023-02-16T20:43:15.903Z,42.17
2023-02-16T20:46:19.315Z,46.33
2023-02-16T20:49:21.931Z,39.33
2023-02-16T20:52:24.365Z,49.00
2023-02-16T20:55:26.938Z,48.67
2023-02-16T20:58:29.803Z,47.85
2023-02-16T21:01:41.602Z,46.55
2023-02-16T21:04:44.017Z,48.70
2023-02-16T21:07:48.041Z,47.28
2023-02-16T21:10:51.490Z,47.00
2023-02-16T21:13:54.142Z,44.45
2023-02-16T21:16:56.520Z,47.33
2023-02-16T21:19:58.952Z,46.63
2023-02-16T21:23:03.665Z,45.00
2023-02-16T21:26:06.920Z,49.13
2023-02-16T21:29:09.557Z,48.83
2023-02-16T21:32:12.142Z,49.83
2023-02-16T21:35:14.570Z,52.75
2023-02-16T21:38:17.859Z,54.08
2023-02-16T21:41:26.791Z,39.13
2023-02-16T21:44:29.221Z,45.80
2023-02-16T21:47:50.197Z,47.15
2023-02-16T21:50:52.858Z,49.20
2023-02-16T21:53:56.353Z,50.92
2023-02-16T21:56:58.832Z,44.92
2023-02-16T22:00:01.709Z,55.45
2023-02-16T22:03:08.867Z,50.60
2023-02-16T22:06:11.863Z,53.15
2023-02-16T22:09:18.375Z,46.72
2023-02-16T22:12:20.784Z,48.55
2023-02-16T22:15:23.442Z,48.90
2023-02-16T22:18:25.923Z,48.70
2023-02-16T22:21:30.285Z,51.40
2023-02-16T22:24:33.126Z,53.53
2023-02-16T22:27:36.549Z,48.33
2023-02-16T22:30:39.164Z,50.87
2023-02-16T22:33:41.657Z,49.70
2023-02-16T22:36:44.190Z,56.80
2023-02-16T22:39:46.879Z,52.58
2023-02-16T22:42:49.425Z,47.70
2023-02-16T22:45:51.882Z,46.65
2023-02-16T22:48:55.735Z,51.65
2023-02-16T22:51:58.161Z,54.63
2023-02-16T22:55:00.628Z,50.25
2023-02-16T22:58:02.947Z,47.55
2023-02-16T23:01:05.656Z,48.42
2023-02-16T23:04:08.011Z,47.70
2023-02-16T23:07:11.176Z,49.47
2023-02-16T23:10:13.967Z,38.10
2023-02-16T23:13:17.104Z,49.63
2023-02-16T23:16:22.146Z,48.60
2023-02-16T23:19:27.299Z,49.00
2023-02-16T23:22:31.049Z,55.63
2023-02-16T23:25:33.687Z,47.33
2023-02-16T23:28:37.213Z,51.70
2023-02-16T23:31:42.109Z,43.53
2023-02-16T23:34:45.101Z,56.08
2023-02-16T23:37:47.758Z,53.42
2023-02-16T23:41:01.052Z,51.70
2023-02-16T23:44:04.225Z,50.38
2023-02-16T23:47:06.638Z,42.00
2023-02-16T23:50:09.341Z,51.97
2023-02-16T23:53:11.831Z,48.88
2023-02-16T23:56:20.558Z,49.63
2023-02-16T23:59:23.855Z,49.78
